Greendale, Wisconsin
Current Conditions -  °F | °C
As of 5:04 PM on Friday 28 Nov 2014 (Local Time) from KMKE Reporting Station
Overcast Overcast  
Wind Chill: 20°   Ceiling: 2100
Heat Index: 29°   Visibility: 10mi
Dew Point: 19°   Wind: 9mph
Humidity: 67%   Direction: 150°SSE
Pressure: 29.96"   Gusts: NA
Location:  42.94°N, 87.99°W
Report Text: KMKE 282304Z 15008KT 10SM BKN021 OVC080 M02/M07 A2996 RMK AO2 T10171072
Loading
Personal Weather Stations






























Interactive Weather Map New forecast layout! Learn more

10-Day Weather Forecast

Advertisements
Track Severe Weather on mobile